Latest Weather Observations for Yarrawonga

IDN60801

Issued at 2:32 pm EDT Friday 19 January 2018 (issued every 30 minutes, with the page automatically refreshed every 10 minutes)

About weather observations | Map of weather stations | Latest weather observations for NSW | Other Formats
Station Details ID: 081124 Name: YARRAWONGA Lat: -36.03 Lon: 146.03 Height: 128.9 m
Data from the previous 72 hours. | See also: Recent months at Yarrawonga
Date/Time
EDT
Temp
°C
App
Temp
°C
Dew
Point
°C
Rel
Hum
%
Delta-T
°C
Wind Press
QNH
hPa
Press
MSL
hPa
Rain since
9am
mm
Dir  Spd
km/h
Gust
km/h
Spd
kts
Gust
kts
19/02:30pm 39.9 36.3 5.1 12 19.2 NE 13 26 7 14 1012.4 1011.8 0.0
19/02:00pm 40.4 38.2 5.5 12 19.4 N 6 15 3 8 1012.8 1012.2 0.0
19/01:30pm 39.1 37.0 5.7 13 18.5 N 6 17 3 9 1013.4 1012.8 0.0
19/01:00pm 38.6 35.4 5.3 13 18.3 N 11 22 6 12 1013.9 1013.3 0.0
19/12:30pm 37.7 35.0 5.6 14 17.7 N 9 19 5 10 1014.4 1013.8 0.0
19/12:00pm 38.0 35.2 6.9 15 17.5 N 11 20 6 11 1014.6 1014.0 0.0
19/11:30am 36.2 33.1 7.3 17 16.2 NNE 13 19 7 10 1015.0 1014.3 0.0
19/11:00am 35.4 32.1 6.6 17 15.9 NNE 13 20 7 11 1015.2 1014.5 0.0
19/10:30am 33.9 31.5 8.5 21 14.4 ENE 11 19 6 10 1015.4 1014.8 0.0
19/10:00am 31.5 28.5 7.9 23 13.0 NE 13 19 7 10 1015.7 1015.1 0.0
19/09:30am 29.4 27.5 10.5 31 10.8 NE 11 17 6 9 1016.1 1015.5 0.0
19/09:00am 27.2 25.6 11.7 38 8.9 ENE 11 15 6 8 1016.0 1015.4 0.0
19/08:30am 25.8 23.1 11.6 41 8.1 ENE 17 24 9 13 1015.7 1015.1 0.0
19/08:00am 24.0 22.1 11.7 46 7.0 ENE 13 17 7 9 1015.5 1014.9 0.0
19/07:30am 22.3 21.1 11.7 51 6.0 E 9 15 5 8 1015.1 1014.4 0.0
19/07:00am 19.0 17.9 11.8 63 4.0 E 9 11 5 6 1014.7 1014.1 0.0
19/06:30am 16.7 15.6 10.5 67 3.3 E 7 9 4 5 1014.4 1013.8 0.0
19/06:00am 17.0 15.0 10.1 64 3.7 E 11 13 6 7 1014.1 1013.5 0.0
19/05:30am 17.1 15.8 9.8 62 3.9 E 7 9 4 5 1013.8 1013.2 0.0
19/05:00am 17.1 15.7 9.5 61 4.0 E 7 9 4 5 1013.5 1012.9 0.0
19/04:30am 17.1 15.6 8.3 56 4.5 E 6 7 3 4 1013.2 1012.6 0.0
19/04:00am 17.2 15.4 8.1 55 4.7 E 7 11 4 6 1013.2 1012.6 0.0
19/03:30am 17.4 14.9 8.0 54 4.8 ESE 11 13 6 7 1013.1 1012.5 0.0
19/03:00am 18.4 16.6 8.1 51 5.3 ESE 7 11 4 6 1013.2 1012.6 0.0
19/02:30am 18.0 16.0 8.6 54 4.9 ESE 9 13 5 7 1013.2 1012.6 0.0
19/02:00am 20.4 19.5 10.8 54 5.3 NE 6 7 3 4 1013.2 1012.6 0.0
19/01:30am 21.9 21.1 11.0 50 6.1 NE 6 7 3 4 1013.3 1012.7 0.0
19/01:00am 21.7 20.0 8.2 42 7.1 NNE 7 7 4 4 1013.5 1012.9 0.0
19/12:30am 22.3 21.0 9.1 43 7.1 NE 6 7 3 4 1013.8 1013.2 0.0
19/12:00am 21.5 20.4 10.6 50 6.0 N 7 9 4 5 1013.8 1013.2 0.0
 
Date/Time
EDT
Temp
°C
App
Temp
°C
Dew
Point
°C
Rel
Hum
%
Delta-T
°C
Wind Press
QNH
hPa
Press
MSL
hPa
Rain since
9am
mm
Dir  Spd
km/h
Gust
km/h
Spd
kts
Gust
kts
18/11:30pm 22.3 20.7 8.1 40 7.5 NE 6 6 3 3 1013.7 1013.1 0.0
18/11:00pm 22.3 21.5 8.1 40 7.5 ENE 2 4 1 2 1013.9 1013.3 0.0
18/10:30pm 24.0 23.5 9.2 39 8.0 NE 2 2 1 1 1013.9 1013.3 0.0
18/10:00pm 25.9 24.7 9.7 36 9.0 NE 6 7 3 4 1013.6 1013.0 0.0
18/09:30pm 28.1 26.9 7.9 28 11.0 NNE 4 4 2 2 1013.4 1012.8 0.0
18/09:00pm 28.0 26.7 9.3 31 10.4 ENE 6 6 3 3 1013.0 1012.4 0.0
18/08:30pm 31.4 29.3 5.8 20 13.7 NE 6 6 3 3 1012.9 1012.3 0.0
18/08:00pm 35.4 33.1 2.8 13 17.0 NNW 4 9 2 5 1012.7 1012.1 0.0
18/07:30pm 36.9 34.2 2.8 12 17.9 NNW 6 13 3 7 1012.6 1012.0 0.0
18/07:00pm 37.0 34.2 2.9 12 17.9 N 7 11 4 6 1012.5 1011.9 0.0
18/06:30pm 37.6 35.4 3.4 12 18.2 NE 4 9 2 5 1012.4 1011.8 0.0
18/06:00pm 38.3 35.6 3.9 12 18.5 NNW 7 17 4 9 1012.6 1012.0 0.0
18/05:30pm 37.7 34.6 3.4 12 18.3 NW 9 15 5 8 1012.9 1012.3 0.0
18/05:00pm 37.9 35.4 3.6 12 18.3 N 6 11 3 6 1013.3 1012.7 0.0
18/04:30pm 37.0 33.0 2.9 12 17.9 NNE 13 22 7 12 1013.6 1013.0 0.0
18/04:00pm 36.7 32.9 3.8 13 17.5 N 13 20 7 11 1014.0 1013.4 0.0
18/03:30pm 36.8 34.3 3.9 13 17.6 NNW 6 11 3 6 1014.5 1013.9 0.0
18/03:00pm 36.8 33.9 4.9 14 17.3 NNE 9 19 5 10 1014.8 1014.2 0.0
18/02:30pm 36.5 33.2 4.7 14 17.2 NW 11 20 6 11 1015.3 1014.7 0.0
18/02:00pm 35.7 33.1 4.1 14 16.8 NNE 7 17 4 9 1015.7 1015.1 0.0
18/01:30pm 35.2 32.3 4.7 15 16.3 NNE 9 24 5 13 1016.2 1015.6 0.0
18/01:00pm 34.4 31.4 4.0 15 16.0 NNW 9 17 5 9 1016.7 1016.1 0.0
18/12:30pm 34.4 31.9 5.0 16 15.8 N 7 17 4 9 1017.0 1016.4 0.0
18/12:00pm 33.4 30.4 4.2 16 15.3 NNE 9 19 5 10 1017.2 1016.6 0.0
18/11:30am 33.4 30.4 5.9 18 14.9 N 11 17 6 9 1017.5 1016.9 0.0
18/11:00am 31.9 29.2 5.4 19 14.1 NNE 9 17 5 9 1017.7 1017.1 0.0
18/10:30am 30.4 27.6 7.0 23 12.7 NE 11 17 6 9 1018.0 1017.4 0.0
18/10:00am 28.5 25.9 9.2 30 10.7 ENE 13 19 7 10 1018.2 1017.6 0.0
18/09:30am 26.8 23.9 9.6 34 9.6 ENE 15 20 8 11 1018.4 1017.8 0.0
18/09:00am 24.4 21.5 9.6 39 8.1 ENE 15 20 8 11 1018.5 1017.9 0.0
18/08:30am 23.5 20.6 9.5 41 7.6 ENE 15 19 8 10 1018.3 1017.7 0.0
18/08:00am 21.8 19.5 10.3 48 6.3 ENE 13 19 7 10 1018.1 1017.5 0.0
18/07:30am 19.9 18.1 10.9 56 4.9 E 11 17 6 9 1017.8 1017.2 0.0
18/07:00am 16.4 15.6 10.9 70 3.0 E 6 7 3 4 1017.6 1017.0 0.0
18/06:30am 14.9 13.0 10.5 75 2.3 E 11 13 6 7 1017.4 1016.8 0.0
18/06:00am 14.5 12.6 9.1 70 2.8 ENE 9 11 5 6 1017.0 1016.4 0.0
18/05:30am 14.9 13.4 9.3 69 2.9 E 7 7 4 4 1016.7 1016.1 0.0
18/05:00am 14.7 13.7 8.9 68 3.0 E 4 6 2 3 1016.4 1015.8 0.0
18/04:30am 15.2 13.8 8.9 66 3.2 E 6 6 3 3 1016.1 1015.5 0.0
18/04:00am 15.7 14.3 8.9 64 3.5 E 6 7 3 4 1016.0 1015.4 0.0
18/03:30am 15.3 13.2 8.3 63 3.6 ESE 9 9 5 5 1016.2 1015.6 0.0
18/03:00am 15.8 14.0 8.1 60 3.9 ESE 7 11 4 6 1016.1 1015.5 0.0
18/02:30am 16.2 14.1 8.2 59 4.1 ESE 9 11 5 6 1016.1 1015.5 0.0
18/02:00am 15.6 13.5 8.4 62 3.7 ESE 9 11 5 6 1016.1 1015.5 0.0
18/01:30am 15.5 15.2 8.5 63 3.6 CALM 0 0 0 0 1016.2 1015.6 0.0
18/01:00am 17.0 15.4 8.2 56 4.5 SSE 6 7 3 4 1016.0 1015.4 0.0
18/12:30am 18.3 17.8 8.0 51 5.3 CALM 0 0 0 0 1016.1 1015.5 0.0
18/12:00am 18.6 17.7 7.7 49 5.6 E 2 4 1 2 1016.0 1015.4 0.0
 
Date/Time
EDT
Temp
°C
App
Temp
°C
Dew
Point
°C
Rel
Hum
%
Delta-T
°C
Wind Press
QNH
hPa
Press
MSL
hPa
Rain since
9am
mm
Dir  Spd
km/h
Gust
km/h
Spd
kts
Gust
kts
17/11:30pm 19.7 19.5 9.0 50 5.7 CALM 0 2 0 1 1016.1 1015.5 0.0
17/11:00pm 20.3 19.2 8.3 46 6.3 ESE 4 4 2 2 1016.2 1015.6 0.0
17/10:30pm 21.2 20.9 8.8 45 6.6 CALM 0 2 0 1 1016.2 1015.6 0.0
17/10:00pm 22.0 20.2 7.0 38 7.7 E 6 6 3 3 1016.0 1015.4 0.0
17/09:30pm 23.7 21.3 6.9 34 8.8 E 9 9 5 5 1015.8 1015.2 0.0
17/09:00pm 24.6 22.3 7.3 33 9.1 E 9 9 5 5 1015.6 1015.0 0.0
17/08:30pm 26.2 24.2 8.7 33 9.5 ENE 9 11 5 6 1015.3 1014.7 0.0
17/08:00pm 30.3 28.6 7.5 24 12.4 NE 6 9 3 5 1015.1 1014.4 0.0
17/07:30pm 31.9 30.1 5.4 19 14.1 N 4 9 2 5 1014.7 1014.1 0.0
17/07:00pm 33.6 32.1 6.8 19 14.7 WSW 4 9 2 5 1014.4 1013.8 0.0
17/06:30pm 32.6 30.4 6.0 19 14.4 N 7 11 4 6 1014.4 1013.8 0.0
17/06:00pm 32.6 29.7 6.7 20 14.1 ENE 11 17 6 9 1014.6 1014.0 0.0
17/05:30pm 34.0 32.0 7.1 19 14.9 NW 7 15 4 8 1014.8 1014.2 0.0
17/05:00pm 33.7 32.2 6.9 19 14.7 SW 4 9 2 5 1015.2 1014.5 0.0
17/04:30pm 32.6 29.7 6.7 20 14.1 NW 11 19 6 10 1015.5 1014.9 0.0
17/04:00pm 32.2 29.8 7.1 21 13.7 N 9 17 5 9 1015.9 1015.3 0.0
17/03:30pm 31.5 28.5 5.8 20 13.7 N 11 20 6 11 1016.3 1015.7 0.0
17/03:00pm 31.3 29.1 6.4 21 13.4 NNE 7 15 4 8 1016.6 1016.0 0.0
17/02:30pm 30.9 28.4 6.7 22 13.1 NNE 9 17 5 9 1016.8 1016.2 0.0
17/02:00pm 31.4 29.3 8.4 24 12.8 WSW 9 13 5 7 1017.0 1016.4 0.0
17/01:30pm 29.9 27.9 7.2 24 12.3 NE 7 13 4 7 1017.5 1016.9 0.0
17/01:00pm 29.4 27.0 8.5 27 11.5 N 11 20 6 11 1017.9 1017.3 0.0
17/12:30pm 28.5 26.6 9.2 30 10.7 NNE 9 15 5 8 1018.1 1017.5 0.0
17/12:00pm 27.8 26.0 9.6 32 10.1 N 9 19 5 10 1018.4 1017.8 0.0
17/11:30am 27.3 25.5 9.6 33 9.9 NNE 9 17 5 9 1018.8 1018.2 0.0
17/11:00am 26.0 23.4 9.4 35 9.1 NNE 13 20 7 11 1018.9 1018.3 0.0
17/10:30am 25.6 23.5 9.8 37 8.8 NE 11 19 6 10 1019.1 1018.5 0.0
17/10:00am 24.4 21.9 8.4 36 8.6 NE 11 19 6 10 1019.2 1018.6 0.0
17/09:30am 23.8 21.3 8.2 37 8.3 ENE 11 19 6 10 1019.3 1018.7 0.0
17/09:00am 22.2 18.5 8.0 40 7.5 ENE 17 20 9 11 1019.4 1018.8 0.0
17/08:30am 21.1 18.0 8.7 45 6.6 ENE 15 19 8 10 1019.3 1018.7 0.0
17/08:00am 19.2 17.1 9.9 55 5.0 E 11 17 6 9 1019.0 1018.4 0.0
17/07:30am 16.9 15.4 10.7 67 3.3 ESE 9 13 5 7 1018.7 1018.1 0.0
17/07:00am 14.1 13.2 10.5 79 1.9 ESE 6 9 3 5 1018.4 1017.8 0.0
17/06:30am 12.0 10.8 9.4 84 1.3 ESE 6 9 3 5 1017.9 1017.3 0.0
17/06:00am 11.5 10.1 8.9 84 1.3 ESE 6 9 3 5 1017.6 1017.0 0.0
17/05:30am 11.8 10.3 8.6 81 1.6 ESE 6 7 3 4 1017.2 1016.6 0.0
17/05:00am 13.1 11.9 9.5 79 1.8 ESE 6 7 3 4 1017.1 1016.5 0.0
17/04:30am 12.9 11.5 9.4 79 1.8 E 7 7 4 4 1016.8 1016.2 0.0
17/04:00am 12.3 10.9 8.8 79 1.8 ESE 6 6 3 3 1016.6 1016.0 0.0
17/03:30am 13.6 13.5 9.6 77 2.1 CALM 0 0 0 0 1016.7 1016.1 0.0
17/03:00am 14.0 14.0 9.8 76 2.2 CALM 0 2 0 1 1016.7 1016.1 0.0
17/02:30am 14.2 14.1 9.4 73 2.5 CALM 0 0 0 0 1017.0 1016.4 0.0
17/02:00am 15.9 15.4 10.7 71 2.8 SE 4 4 2 2 1017.0 1016.4 0.0
17/01:30am 16.7 16.6 10.8 68 3.2 SSE 2 4 1 2 1017.1 1016.5 0.0
17/01:00am 17.0 16.5 10.8 67 3.3 SSE 4 6 2 3 1017.4 1016.8 0.0
17/12:30am 17.7 16.5 10.3 62 4.0 ESE 7 9 4 5 1017.4 1016.8 0.0
17/12:00am 18.2 16.9 10.1 59 4.3 E 7 9 4 5 1017.4 1016.8 0.0
 
Date/Time
EDT
Temp
°C
App
Temp
°C
Dew
Point
°C
Rel
Hum
%
Delta-T
°C
Wind Press
QNH
hPa
Press
MSL
hPa
Rain since
9am
mm
Dir  Spd
km/h
Gust
km/h
Spd
kts
Gust
kts
16/11:30pm 19.4 18.4 10.4 56 4.9 ESE 6 7 3 4 1017.3 1016.7 0.0
16/11:00pm 19.8 19.2 10.5 55 5.1 SE 4 7 2 4 1017.2 1016.6 0.0
16/10:30pm 19.6 18.3 9.8 53 5.3 E 7 13 4 7 1017.1 1016.5 0.0
16/10:00pm 22.5 20.8 8.2 40 7.6 SE 7 9 4 5 1017.1 1016.5 0.0
16/09:30pm 22.4 20.5 6.6 36 8.1 SE 6 9 3 5 1016.8 1016.2 0.0
16/09:00pm 23.4 21.2 6.2 33 8.8 ESE 7 9 4 5 1016.6 1016.0 0.0
16/08:30pm 25.2 22.8 5.4 28 10.1 E 7 11 4 6 1016.4 1015.8 0.0
16/08:00pm 29.0 26.6 5.1 22 12.4 ESE 7 13 4 7 1016.2 1015.6 0.0
16/07:30pm 30.6 28.1 3.6 18 13.8 ESE 6 17 3 9 1016.1 1015.5 0.0
16/07:00pm 31.4 28.4 4.2 18 14.1 SE 9 13 5 7 1015.9 1015.3 0.0
16/06:30pm 31.7 28.8 4.5 18 14.2 S 9 15 5 8 1015.8 1015.2 0.0
16/06:00pm 31.8 28.9 4.6 18 14.3 ESE 9 15 5 8 1015.8 1015.2 0.0
16/05:30pm 31.6 29.0 4.4 18 14.2 ESE 7 20 4 11 1015.8 1015.2 0.0
16/05:00pm 31.1 28.1 4.0 18 14.0 SE 9 20 5 11 1016.3 1015.7 0.0
16/04:30pm 29.7 26.6 5.7 22 12.7 NNE 11 17 6 9 1016.7 1016.1 0.0
16/04:00pm 30.6 28.1 6.5 22 13.0 NE 9 19 5 10 1016.9 1016.3 0.0
16/03:30pm 29.7 26.6 5.7 22 12.7 ENE 11 17 6 9 1017.4 1016.8 0.0
16/03:00pm 29.4 26.5 6.7 24 12.2 NNE 11 19 6 10 1018.0 1017.4 0.0

Other Formats:

Comma delimited format used in spreadsheet applications
http://www.bom.gov.au/fwo/IDN60801/IDN60801.94862.axf

JavaScript Object Notation format (JSON) in row-major order
http://www.bom.gov.au/fwo/IDN60801/IDN60801.94862.json